Pagrindinis puslapis
METAR-TAF:

METAR-TAF

Oro uostai :

Gaziantepas, Turkija

platuma: 37-05N, ilguma: 037-22E, Aukštis: 701 m

Dabartinis oras

Ataskaita buvo paskelbta 36 minutes, ne 08:50 UTC
Ramus vėjas
Temperatūra 22°C
Drėgmė 17%
Slėgis 1020 hPa
Matomumas 10 km arba daugiau
nėra debesų žemiau 1500 m ir nėra kamuolinių lietaus debesų

METAR: LTAJ 270850Z 00000KT CAVOK 22/M04 Q1020 NOSIG RMK RWY10 02004KT 330V080 1CI180

Laikas: 12:26 (09:26 UTC)

Prognozė

Ataskaita buvo paskelbta 4 valandos ir 46 minutes, ne 04:40 UTC
Prognozė galioja nuo 27 metu 06 UTC su 28 metu 06 UTC
Vėjas 2 kt nuo kintamojo kryptimis
Matomumas 10 km arba daugiau
Mažai debesys ne aukštis 4000 ft
Su prošvaistėmis ne aukštis 10000 ft
Laikinai
nuo 27 metu 06 UTC su 27 metu 08 UTC
Vėjas 12 kt iš Šiaurės Rytų

TAF: LTAJ 270440Z 2706/2806 VRB02KT 9999 FEW040 BKN100 TEMPO 2706/2708 04012KT

Orai ataskaitas ir orų prognozės (METAR, TAF).

turimą stotys yra geltonos ir raudonos taškus žemėlapyje.

Perkelti pele per norėdami pamatyti stoties vardą.

Tada spustelėkite, norėdami matyti oro stebėjimo ir prognozės.

Norėdami pakeisti žemėlapį: spustelėkite ant žalios mygtukų su juodo kryžiaus žemyn,; žalią mygtuką su brūkšneliu, jei norite nutolinti; arba žalių rodyklių gretimoms žemėlapius.


METAR-TAF: